createdAt,value
2023-02-07T00:00:03.234Z,8.75
2023-02-07T00:05:17.467Z,6.25
2023-02-07T00:10:20.251Z,8.25
2023-02-07T00:15:23.059Z,7.25
2023-02-07T00:20:27.182Z,8.00
2023-02-07T00:25:29.938Z,8.00
2023-02-07T00:30:32.773Z,6.00
2023-02-07T00:35:37.295Z,6.50
2023-02-07T00:40:41.054Z,6.75
2023-02-07T00:45:43.845Z,7.75
2023-02-07T00:50:48.073Z,6.00
2023-02-07T00:55:52.280Z,8.25
2023-02-07T01:00:55.096Z,7.75
2023-02-07T01:05:59.324Z,5.00
2023-02-07T01:11:04.159Z,7.75
2023-02-07T01:16:07.431Z,7.75
2023-02-07T01:21:17.109Z,7.00
2023-02-07T01:26:19.922Z,5.50
2023-02-07T01:31:24.032Z,7.00
2023-02-07T01:36:30.031Z,6.00
2023-02-07T01:41:32.849Z,6.00
2023-02-07T01:46:37.045Z,5.75
2023-02-07T01:51:46.349Z,7.25
2023-02-07T01:56:54.862Z,6.00
2023-02-07T02:01:58.948Z,4.25
2023-02-07T02:07:04.975Z,5.00
2023-02-07T02:12:47.202Z,4.50
2023-02-07T02:18:03.826Z,6.00
2023-02-07T02:23:19.625Z,5.50
2023-02-07T02:28:46.535Z,6.75
2023-02-07T02:33:58.725Z,5.75
2023-02-07T02:39:09.250Z,6.75
2023-02-07T02:44:18.077Z,7.00
2023-02-07T02:49:23.984Z,6.00
2023-02-07T02:54:31.966Z,5.00
2023-02-07T02:59:52.337Z,5.25
2023-02-07T03:05:13.923Z,4.25
2023-02-07T03:10:29.657Z,5.75
2023-02-07T03:15:39.260Z,6.50
2023-02-07T03:20:49.210Z,5.50
2023-02-07T03:25:53.728Z,6.00
2023-02-07T03:31:02.641Z,7.50
2023-02-07T03:36:15.355Z,5.50
2023-02-07T03:41:25.572Z,4.00
2023-02-07T03:46:35.636Z,6.00
2023-02-07T03:51:39.796Z,5.50
2023-02-07T03:56:42.876Z,4.25
2023-02-07T04:01:45.692Z,5.50
2023-02-07T04:06:49.913Z,7.50
2023-02-07T04:11:53.426Z,6.75
2023-02-07T04:16:56.315Z,4.50
2023-02-07T04:22:00.435Z,4.75
2023-02-07T04:27:03.274Z,5.50
2023-02-07T04:32:06.436Z,5.00
2023-02-07T04:37:10.606Z,5.00
2023-02-07T04:42:13.579Z,6.50
2023-02-07T04:47:16.383Z,6.00
2023-02-07T04:52:20.493Z,6.00
2023-02-07T04:57:23.289Z,4.50
2023-02-07T05:02:26.212Z,6.75
2023-02-07T05:07:30.521Z,6.00
2023-02-07T05:12:33.434Z,6.75
2023-02-07T05:17:38.497Z,5.50
2023-02-07T05:22:42.861Z,5.50
2023-02-07T05:27:45.759Z,6.75
2023-02-07T05:33:05.999Z,8.75
2023-02-07T05:38:12.929Z,6.00
2023-02-07T05:43:15.859Z,7.00
2023-02-07T05:48:18.746Z,7.25
2023-02-07T05:53:23.060Z,7.00
2023-02-07T05:58:25.824Z,7.25
2023-02-07T06:03:28.622Z,6.00
2023-02-07T06:08:32.803Z,5.00
2023-02-07T06:13:35.710Z,4.75
2023-02-07T06:18:38.806Z,7.75
2023-02-07T06:23:42.948Z,5.50
2023-02-07T06:28:45.859Z,6.00
2023-02-07T06:33:48.607Z,6.75
2023-02-07T06:38:55.399Z,7.00
2023-02-07T06:43:58.290Z,7.00
2023-02-07T06:49:01.081Z,4.50
2023-02-07T06:54:09.566Z,5.50
2023-02-07T06:59:12.415Z,5.00
2023-02-07T07:04:15.616Z,6.75
2023-02-07T07:09:19.900Z,5.00
2023-02-07T07:14:23.048Z,6.75
2023-02-07T07:19:25.869Z,7.00
2023-02-07T07:24:30.021Z,6.25
2023-02-07T07:29:32.849Z,7.50
2023-02-07T07:34:35.792Z,5.50
2023-02-07T07:39:40.018Z,5.50
2023-02-07T07:44:42.916Z,5.50
2023-02-07T07:49:45.740Z,5.25
2023-02-07T07:54:49.853Z,5.00
2023-02-07T07:59:52.674Z,5.25
2023-02-07T08:04:55.666Z,40.40
2023-02-07T08:09:59.848Z,38.00
2023-02-07T08:15:02.828Z,32.40
2023-02-07T08:20:07.514Z,32.60
2023-02-07T08:25:11.776Z,27.25
2023-02-07T08:30:15.958Z,22.75
2023-02-07T08:35:19.165Z,22.25
2023-02-07T08:40:23.367Z,20.50
2023-02-07T08:45:26.494Z,20.50
2023-02-07T08:50:29.257Z,17.25
2023-02-07T08:55:33.423Z,17.50
2023-02-07T09:00:36.297Z,17.00
2023-02-07T09:05:39.201Z,18.00
2023-02-07T09:10:45.400Z,19.75
2023-02-07T09:15:55.476Z,18.00
2023-02-07T09:20:58.310Z,17.75
2023-02-07T09:26:04.679Z,19.00
2023-02-07T09:31:11.708Z,15.75
2023-02-07T09:36:21.032Z,14.00
2023-02-07T09:41:31.398Z,14.25
2023-02-07T09:46:38.126Z,13.50
2023-02-07T09:51:41.883Z,15.75
2023-02-07T09:56:47.395Z,13.75
2023-02-07T10:01:54.646Z,14.75
2023-02-07T10:07:00.180Z,12.00
2023-02-07T10:12:17.392Z,12.75
2023-02-07T10:17:32.430Z,14.00
2023-02-07T10:22:45.787Z,14.00
2023-02-07T10:28:04.349Z,13.00
2023-02-07T10:33:15.831Z,11.75
2023-02-07T10:38:24.983Z,14.75
2023-02-07T10:43:32.569Z,11.25
2023-02-07T10:48:36.833Z,11.25
2023-02-07T10:53:54.957Z,10.75
2023-02-07T10:59:00.842Z,13.00
2023-02-07T11:04:22.723Z,10.25
2023-02-07T11:09:26.388Z,12.00
2023-02-07T11:14:31.038Z,12.50
2023-02-07T11:19:33.927Z,11.75
2023-02-07T11:24:38.598Z,10.00
2023-02-07T11:29:49.593Z,11.75
2023-02-07T11:34:55.302Z,10.50
2023-02-07T11:40:21.170Z,10.00
2023-02-07T11:45:25.805Z,12.50
2023-02-07T11:50:31.250Z,10.00
2023-02-07T11:55:36.942Z,10.00
2023-02-07T12:00:42.452Z,12.25
2023-02-07T12:05:51.783Z,10.50
2023-02-07T12:10:59.032Z,11.00
2023-02-07T12:16:08.030Z,11.00
2023-02-07T12:21:19.657Z,12.25
2023-02-07T12:26:25.638Z,13.00
2023-02-07T12:31:38.644Z,10.75
2023-02-07T12:36:47.445Z,10.25
2023-02-07T12:41:57.196Z,11.25
2023-02-07T12:47:08.562Z,11.00
2023-02-07T12:52:27.204Z,9.00
2023-02-07T12:57:38.853Z,11.75
2023-02-07T13:02:56.523Z,9.75
2023-02-07T13:08:11.161Z,9.50
2023-02-07T13:13:23.336Z,10.50
2023-02-07T13:18:35.403Z,10.25
2023-02-07T13:23:42.706Z,8.50
2023-02-07T13:28:51.094Z,11.25
2023-02-07T13:33:55.549Z,9.25
2023-02-07T13:39:08.967Z,41.00
2023-02-07T13:44:23.514Z,46.60
2023-02-07T13:49:41.718Z,44.20
2023-02-07T13:54:57.076Z,44.20
2023-02-07T14:00:15.445Z,36.80
2023-02-07T14:05:26.318Z,39.40
2023-02-07T14:10:39.842Z,39.60
2023-02-07T14:16:11.257Z,38.40
2023-02-07T14:21:45.835Z,36.60
2023-02-07T14:27:06.380Z,38.20
2023-02-07T14:32:28.582Z,39.00
2023-02-07T14:37:49.324Z,34.00
2023-02-07T14:43:02.438Z,36.60
2023-02-07T14:48:07.657Z,31.80
2023-02-07T14:53:15.803Z,31.20
2023-02-07T14:58:27.482Z,32.60
2023-02-07T15:03:34.835Z,32.00
2023-02-07T15:08:39.116Z,31.40
2023-02-07T15:13:45.256Z,31.00
2023-02-07T15:18:52.772Z,29.00
2023-02-07T15:24:01.581Z,29.40
2023-02-07T15:29:07.305Z,27.20
2023-02-07T15:34:17.427Z,30.00
2023-02-07T15:39:23.956Z,30.80
2023-02-07T15:44:28.303Z,29.40
2023-02-07T15:49:34.044Z,27.80
2023-02-07T15:54:45.962Z,28.40
2023-02-07T15:59:52.188Z,28.00
2023-02-07T16:04:55.158Z,28.00
2023-02-07T16:10:17.907Z,27.60
2023-02-07T16:15:27.948Z,28.60
2023-02-07T16:20:35.219Z,29.00
2023-02-07T16:25:39.440Z,26.80
2023-02-07T16:30:42.595Z,28.60
2023-02-07T16:35:45.723Z,42.00
2023-02-07T16:40:50.455Z,59.00
2023-02-07T16:45:54.512Z,60.80
2023-02-07T16:50:58.212Z,91.40
2023-02-07T16:56:03.929Z,94.00
2023-02-07T17:01:06.854Z,98.20
2023-02-07T17:06:14.093Z,92.00
2023-02-07T17:11:20.693Z,89.80
2023-02-07T17:16:25.461Z,82.40
2023-02-07T17:21:28.272Z,71.40
2023-02-07T17:26:32.960Z,77.00
2023-02-07T17:31:35.913Z,71.60
2023-02-07T17:36:40.085Z,66.60
2023-02-07T17:41:44.352Z,66.20
2023-02-07T17:46:47.170Z,61.60
2023-02-07T17:51:50.245Z,60.20
2023-02-07T17:56:55.705Z,56.40
2023-02-07T18:01:58.535Z,56.80
2023-02-07T18:07:01.369Z,53.60
2023-02-07T18:12:05.802Z,56.80
2023-02-07T18:17:08.646Z,51.40
2023-02-07T18:22:11.810Z,53.20
2023-02-07T18:27:17.338Z,53.20
2023-02-07T18:32:20.159Z,51.40
2023-02-07T18:37:23.003Z,50.40
2023-02-07T18:42:27.406Z,48.00
2023-02-07T18:47:32.194Z,47.80
2023-02-07T18:52:35.100Z,48.40
2023-02-07T18:57:39.286Z,47.80
2023-02-07T19:02:42.145Z,45.80
2023-02-07T19:07:45.000Z,45.00
2023-02-07T19:12:49.161Z,45.40
2023-02-07T19:17:51.909Z,44.20
2023-02-07T19:22:54.669Z,44.60
2023-02-07T19:27:58.856Z,43.00
2023-02-07T19:33:01.640Z,43.20
2023-02-07T19:38:04.792Z,44.20
2023-02-07T19:43:09.143Z,43.40
2023-02-07T19:48:11.945Z,43.00
2023-02-07T19:53:16.123Z,42.80
2023-02-07T19:58:20.249Z,41.00
2023-02-07T20:03:23.048Z,43.40
2023-02-07T20:08:26.144Z,39.60
2023-02-07T20:13:33.435Z,40.80
2023-02-07T20:18:36.559Z,40.20
2023-02-07T20:23:41.654Z,40.00
2023-02-07T20:28:46.715Z,38.80
2023-02-07T20:33:50.101Z,37.20
2023-02-07T20:38:53.309Z,37.20
2023-02-07T20:43:59.202Z,40.00
2023-02-07T20:49:04.880Z,41.40
2023-02-07T20:54:07.966Z,36.60
2023-02-07T20:59:17.556Z,37.60
2023-02-07T21:04:20.363Z,36.80
2023-02-07T21:09:23.359Z,39.40
2023-02-07T21:14:29.609Z,34.40
2023-02-07T21:19:32.475Z,34.20
2023-02-07T21:24:35.631Z,34.40
2023-02-07T21:29:39.899Z,37.80
2023-02-07T21:34:42.882Z,34.60
2023-02-07T21:39:45.617Z,35.00
2023-02-07T21:44:49.786Z,35.20
2023-02-07T21:49:52.518Z,36.20
2023-02-07T21:54:55.344Z,33.80
2023-02-07T21:59:59.548Z,35.20
2023-02-07T22:05:02.347Z,33.60
2023-02-07T22:10:05.420Z,31.40
2023-02-07T22:15:10.031Z,32.20
2023-02-07T22:20:13.096Z,33.60
2023-02-07T22:25:16.055Z,34.00
2023-02-07T22:30:20.352Z,33.80
2023-02-07T22:35:23.096Z,32.20
2023-02-07T22:40:25.858Z,31.20
2023-02-07T22:45:30.546Z,32.60
2023-02-07T22:50:33.718Z,31.60
2023-02-07T22:55:36.436Z,31.40
2023-02-07T23:00:41.577Z,32.00
2023-02-07T23:05:44.558Z,30.80
2023-02-07T23:10:47.308Z,30.00
2023-02-07T23:15:51.566Z,31.20
2023-02-07T23:20:54.482Z,31.40
2023-02-07T23:25:58.693Z,31.20
2023-02-07T23:31:02.846Z,30.40
2023-02-07T23:36:06.930Z,30.00
2023-02-07T23:41:10.230Z,29.20
2023-02-07T23:46:16.157Z,26.60
2023-02-07T23:51:19.040Z,30.20
2023-02-07T23:56:23.367Z,29.60
